sensor_id;sensor_type;location;lat;lon;timestamp;P1;durP1;ratioP1;P2;durP2;ratioP2
79670;SDS011;69137;50.878;8.050;2023-05-10T00:00:10;1.38;;;0.93;;
79670;SDS011;69137;50.878;8.050;2023-05-10T00:02:36;1.83;;;0.93;;
79670;SDS011;69137;50.878;8.050;2023-05-10T00:05:01;2.72;;;1.02;;
79670;SDS011;69137;50.878;8.050;2023-05-10T00:07:26;1.05;;;0.90;;
79670;SDS011;69137;50.878;8.050;2023-05-10T00:09:52;2.38;;;1.30;;
79670;SDS011;69137;50.878;8.050;2023-05-10T00:12:17;1.02;;;0.93;;
79670;SDS011;69137;50.878;8.050;2023-05-10T00:14:43;2.55;;;1.02;;
79670;SDS011;69137;50.878;8.050;2023-05-10T00:17:08;1.55;;;0.98;;
79670;SDS011;69137;50.878;8.050;2023-05-10T00:19:34;4.93;;;1.23;;
79670;SDS011;69137;50.878;8.050;2023-05-10T00:21:59;1.33;;;0.90;;
79670;SDS011;69137;50.878;8.050;2023-05-10T00:24:24;2.75;;;1.42;;
79670;SDS011;69137;50.878;8.050;2023-05-10T00:26:50;3.00;;;1.25;;
79670;SDS011;69137;50.878;8.050;2023-05-10T00:29:15;1.77;;;1.17;;
79670;SDS011;69137;50.878;8.050;2023-05-10T00:31:41;2.00;;;1.38;;
79670;SDS011;69137;50.878;8.050;2023-05-10T00:34:06;1.90;;;1.50;;
79670;SDS011;69137;50.878;8.050;2023-05-10T00:36:31;4.65;;;1.13;;
79670;SDS011;69137;50.878;8.050;2023-05-10T00:38:57;2.80;;;1.40;;
79670;SDS011;69137;50.878;8.050;2023-05-10T00:41:22;1.55;;;1.00;;
79670;SDS011;69137;50.878;8.050;2023-05-10T00:43:48;1.40;;;1.10;;
79670;SDS011;69137;50.878;8.050;2023-05-10T00:46:14;1.50;;;0.95;;
79670;SDS011;69137;50.878;8.050;2023-05-10T00:48:40;2.00;;;1.08;;
79670;SDS011;69137;50.878;8.050;2023-05-10T00:51:06;1.88;;;1.10;;
79670;SDS011;69137;50.878;8.050;2023-05-10T00:53:32;2.58;;;1.25;;
79670;SDS011;69137;50.878;8.050;2023-05-10T00:55:59;1.58;;;1.20;;
79670;SDS011;69137;50.878;8.050;2023-05-10T00:58:25;2.95;;;1.30;;
79670;SDS011;69137;50.878;8.050;2023-05-10T01:00:53;2.33;;;0.93;;
79670;SDS011;69137;50.878;8.050;2023-05-10T01:03:20;3.05;;;1.20;;
79670;SDS011;69137;50.878;8.050;2023-05-10T01:05:45;1.38;;;1.20;;
79670;SDS011;69137;50.878;8.050;2023-05-10T01:08:11;1.50;;;1.20;;
79670;SDS011;69137;50.878;8.050;2023-05-10T01:10:37;2.20;;;1.23;;
79670;SDS011;69137;50.878;8.050;2023-05-10T01:13:02;1.98;;;1.33;;
79670;SDS011;69137;50.878;8.050;2023-05-10T01:15:28;1.15;;;1.05;;
79670;SDS011;69137;50.878;8.050;2023-05-10T01:17:54;2.00;;;1.40;;
79670;SDS011;69137;50.878;8.050;2023-05-10T01:20:21;1.90;;;1.45;;
79670;SDS011;69137;50.878;8.050;2023-05-10T01:28:21;1.40;;;1.20;;
79670;SDS011;69137;50.878;8.050;2023-05-10T01:30:57;2.97;;;1.42;;
79670;SDS011;69137;50.878;8.050;2023-05-10T01:33:35;2.25;;;1.55;;
79670;SDS011;69137;50.878;8.050;2023-05-10T01:36:26;2.25;;;1.40;;
79670;SDS011;69137;50.878;8.050;2023-05-10T01:38:59;2.40;;;1.40;;
79670;SDS011;69137;50.878;8.050;2023-05-10T01:50:09;2.85;;;1.38;;
79670;SDS011;69137;50.878;8.050;2023-05-10T01:52:41;1.40;;;1.30;;
79670;SDS011;69137;50.878;8.050;2023-05-10T01:55:09;3.05;;;1.90;;
79670;SDS011;69137;50.878;8.050;2023-05-10T01:57:39;2.30;;;1.50;;
79670;SDS011;69137;50.878;8.050;2023-05-10T02:00:07;1.70;;;1.35;;
79670;SDS011;69137;50.878;8.050;2023-05-10T02:02:37;1.60;;;1.40;;
79670;SDS011;69137;50.878;8.050;2023-05-10T02:05:07;5.93;;;2.00;;
79670;SDS011;69137;50.878;8.050;2023-05-10T02:07:34;2.15;;;1.60;;
79670;SDS011;69137;50.878;8.050;2023-05-10T02:10:04;2.30;;;1.45;;
79670;SDS011;69137;50.878;8.050;2023-05-10T02:12:36;2.50;;;1.80;;
79670;SDS011;69137;50.878;8.050;2023-05-10T02:15:04;3.42;;;1.80;;
79670;SDS011;69137;50.878;8.050;2023-05-10T02:17:32;2.17;;;1.60;;
79670;SDS011;69137;50.878;8.050;2023-05-10T02:19:58;2.85;;;1.30;;
79670;SDS011;69137;50.878;8.050;2023-05-10T02:22:26;2.97;;;1.70;;
79670;SDS011;69137;50.878;8.050;2023-05-10T02:24:53;1.90;;;1.40;;
79670;SDS011;69137;50.878;8.050;2023-05-10T02:27:22;5.10;;;2.05;;
79670;SDS011;69137;50.878;8.050;2023-05-10T02:29:50;2.72;;;1.80;;
79670;SDS011;69137;50.878;8.050;2023-05-10T02:32:17;2.55;;;1.90;;
79670;SDS011;69137;50.878;8.050;2023-05-10T02:34:44;2.47;;;1.85;;
79670;SDS011;69137;50.878;8.050;2023-05-10T02:37:12;3.35;;;1.92;;
79670;SDS011;69137;50.878;8.050;2023-05-10T02:39:40;3.65;;;1.95;;
79670;SDS011;69137;50.878;8.050;2023-05-10T02:42:10;2.65;;;2.05;;
79670;SDS011;69137;50.878;8.050;2023-05-10T02:44:41;2.67;;;1.90;;
79670;SDS011;69137;50.878;8.050;2023-05-10T02:47:08;2.75;;;2.00;;
79670;SDS011;69137;50.878;8.050;2023-05-10T02:49:33;3.35;;;1.80;;
79670;SDS011;69137;50.878;8.050;2023-05-10T02:52:01;2.42;;;1.80;;
79670;SDS011;69137;50.878;8.050;2023-05-10T02:54:30;2.75;;;1.83;;
79670;SDS011;69137;50.878;8.050;2023-05-10T02:56:59;3.63;;;2.13;;
79670;SDS011;69137;50.878;8.050;2023-05-10T02:59:29;4.20;;;2.78;;
79670;SDS011;69137;50.878;8.050;2023-05-10T03:01:54;3.40;;;2.70;;
79670;SDS011;69137;50.878;8.050;2023-05-10T03:04:19;4.55;;;2.35;;
79670;SDS011;69137;50.878;8.050;2023-05-10T03:06:45;3.55;;;2.42;;
79670;SDS011;69137;50.878;8.050;2023-05-10T03:09:11;4.03;;;2.60;;
79670;SDS011;69137;50.878;8.050;2023-05-10T03:11:47;7.15;;;3.20;;
79670;SDS011;69137;50.878;8.050;2023-05-10T03:17:23;4.57;;;3.13;;
79670;SDS011;69137;50.878;8.050;2023-05-10T03:20:03;4.22;;;3.00;;
79670;SDS011;69137;50.878;8.050;2023-05-10T03:22:32;5.40;;;2.63;;
79670;SDS011;69137;50.878;8.050;2023-05-10T03:25:04;5.28;;;2.80;;
79670;SDS011;69137;50.878;8.050;2023-05-10T03:27:31;7.32;;;3.35;;
79670;SDS011;69137;50.878;8.050;2023-05-10T03:29:58;5.90;;;3.88;;
79670;SDS011;69137;50.878;8.050;2023-05-10T03:32:25;5.07;;;3.42;;
79670;SDS011;69137;50.878;8.050;2023-05-10T03:34:52;6.05;;;3.85;;
79670;SDS011;69137;50.878;8.050;2023-05-10T03:37:17;5.88;;;3.65;;
79670;SDS011;69137;50.878;8.050;2023-05-10T03:39:42;6.45;;;4.30;;
79670;SDS011;69137;50.878;8.050;2023-05-10T03:42:08;7.80;;;4.20;;
79670;SDS011;69137;50.878;8.050;2023-05-10T03:44:36;5.80;;;4.38;;
79670;SDS011;69137;50.878;8.050;2023-05-10T03:47:03;5.82;;;3.97;;
79670;SDS011;69137;50.878;8.050;2023-05-10T03:49:28;9.63;;;4.95;;
79670;SDS011;69137;50.878;8.050;2023-05-10T03:51:54;5.28;;;3.85;;
79670;SDS011;69137;50.878;8.050;2023-05-10T03:54:19;8.00;;;5.50;;
79670;SDS011;69137;50.878;8.050;2023-05-10T03:56:45;7.18;;;4.70;;
79670;SDS011;69137;50.878;8.050;2023-05-10T03:59:12;7.95;;;5.47;;
79670;SDS011;69137;50.878;8.050;2023-05-10T04:01:38;9.55;;;5.20;;
79670;SDS011;69137;50.878;8.050;2023-05-10T04:04:04;9.70;;;6.07;;
79670;SDS011;69137;50.878;8.050;2023-05-10T04:06:29;7.63;;;5.20;;
79670;SDS011;69137;50.878;8.050;2023-05-10T04:08:54;10.52;;;5.20;;
79670;SDS011;69137;50.878;8.050;2023-05-10T04:11:20;7.53;;;4.68;;
79670;SDS011;69137;50.878;8.050;2023-05-10T04:13:46;7.55;;;5.20;;
79670;SDS011;69137;50.878;8.050;2023-05-10T04:16:12;7.68;;;4.55;;
79670;SDS011;69137;50.878;8.050;2023-05-10T04:18:37;8.07;;;5.07;;
79670;SDS011;69137;50.878;8.050;2023-05-10T04:21:04;7.10;;;4.80;;
79670;SDS011;69137;50.878;8.050;2023-05-10T04:23:35;6.57;;;4.55;;
79670;SDS011;69137;50.878;8.050;2023-05-10T04:26:01;6.13;;;3.92;;
79670;SDS011;69137;50.878;8.050;2023-05-10T04:28:27;5.57;;;4.00;;
79670;SDS011;69137;50.878;8.050;2023-05-10T04:30:52;5.93;;;3.85;;
79670;SDS011;69137;50.878;8.050;2023-05-10T04:33:17;15.48;;;3.95;;
79670;SDS011;69137;50.878;8.050;2023-05-10T04:35:43;3.63;;;2.45;;
79670;SDS011;69137;50.878;8.050;2023-05-10T04:38:09;4.05;;;2.80;;
79670;SDS011;69137;50.878;8.050;2023-05-10T04:40:35;4.13;;;2.90;;
79670;SDS011;69137;50.878;8.050;2023-05-10T04:43:00;4.78;;;2.67;;
79670;SDS011;69137;50.878;8.050;2023-05-10T04:45:26;3.75;;;2.08;;
79670;SDS011;69137;50.878;8.050;2023-05-10T04:47:51;2.70;;;1.83;;
79670;SDS011;69137;50.878;8.050;2023-05-10T04:50:16;2.53;;;2.00;;
79670;SDS011;69137;50.878;8.050;2023-05-10T04:52:42;2.90;;;2.10;;
79670;SDS011;69137;50.878;8.050;2023-05-10T04:55:07;2.60;;;1.70;;
79670;SDS011;69137;50.878;8.050;2023-05-10T04:57:34;3.90;;;2.28;;
79670;SDS011;69137;50.878;8.050;2023-05-10T05:00:00;3.45;;;2.35;;
79670;SDS011;69137;50.878;8.050;2023-05-10T05:02:25;3.97;;;2.90;;
79670;SDS011;69137;50.878;8.050;2023-05-10T05:04:51;4.28;;;2.42;;
79670;SDS011;69137;50.878;8.050;2023-05-10T05:07:16;4.60;;;3.55;;
79670;SDS011;69137;50.878;8.050;2023-05-10T05:09:41;5.97;;;3.00;;
79670;SDS011;69137;50.878;8.050;2023-05-10T05:12:07;3.65;;;2.80;;
79670;SDS011;69137;50.878;8.050;2023-05-10T05:14:32;5.30;;;2.83;;
79670;SDS011;69137;50.878;8.050;2023-05-10T05:16:58;5.35;;;3.30;;
79670;SDS011;69137;50.878;8.050;2023-05-10T05:19:23;6.30;;;3.10;;
79670;SDS011;69137;50.878;8.050;2023-05-10T05:21:49;4.15;;;2.55;;
79670;SDS011;69137;50.878;8.050;2023-05-10T05:24:14;6.43;;;2.85;;
79670;SDS011;69137;50.878;8.050;2023-05-10T05:26:40;6.32;;;2.55;;
79670;SDS011;69137;50.878;8.050;2023-05-10T05:29:05;5.93;;;2.95;;
79670;SDS011;69137;50.878;8.050;2023-05-10T05:31:30;5.93;;;2.95;;
79670;SDS011;69137;50.878;8.050;2023-05-10T05:33:56;3.50;;;2.53;;
79670;SDS011;69137;50.878;8.050;2023-05-10T05:36:21;5.20;;;3.03;;
79670;SDS011;69137;50.878;8.050;2023-05-10T05:38:47;4.78;;;2.92;;
79670;SDS011;69137;50.878;8.050;2023-05-10T05:41:12;4.57;;;3.05;;
79670;SDS011;69137;50.878;8.050;2023-05-10T05:43:38;4.72;;;2.92;;
79670;SDS011;69137;50.878;8.050;2023-05-10T05:46:05;3.90;;;2.88;;
79670;SDS011;69137;50.878;8.050;2023-05-10T05:48:30;5.57;;;3.17;;
79670;SDS011;69137;50.878;8.050;2023-05-10T05:50:56;6.35;;;3.05;;
79670;SDS011;69137;50.878;8.050;2023-05-10T05:53:24;5.90;;;3.13;;
79670;SDS011;69137;50.878;8.050;2023-05-10T05:55:53;4.03;;;2.88;;
79670;SDS011;69137;50.878;8.050;2023-05-10T05:58:20;5.45;;;3.60;;
79670;SDS011;69137;50.878;8.050;2023-05-10T06:00:46;5.80;;;3.78;;
79670;SDS011;69137;50.878;8.050;2023-05-10T06:03:18;8.52;;;3.65;;
79670;SDS011;69137;50.878;8.050;2023-05-10T06:13:05;11.00;;;3.95;;
79670;SDS011;69137;50.878;8.050;2023-05-10T06:19:24;5.78;;;3.97;;
79670;SDS011;69137;50.878;8.050;2023-05-10T06:25:57;7.15;;;4.43;;
79670;SDS011;69137;50.878;8.050;2023-05-10T06:32:30;7.50;;;3.90;;
79670;SDS011;69137;50.878;8.050;2023-05-10T06:34:55;5.40;;;3.80;;
79670;SDS011;69137;50.878;8.050;2023-05-10T06:37:20;6.72;;;3.65;;
79670;SDS011;69137;50.878;8.050;2023-05-10T06:39:46;8.40;;;4.78;;
79670;SDS011;69137;50.878;8.050;2023-05-10T06:42:11;6.30;;;4.22;;
79670;SDS011;69137;50.878;8.050;2023-05-10T06:44:37;5.65;;;3.80;;
79670;SDS011;69137;50.878;8.050;2023-05-10T06:47:02;6.05;;;4.13;;
79670;SDS011;69137;50.878;8.050;2023-05-10T06:49:27;6.75;;;4.60;;
79670;SDS011;69137;50.878;8.050;2023-05-10T06:51:53;7.13;;;4.20;;
79670;SDS011;69137;50.878;8.050;2023-05-10T06:54:20;8.23;;;5.20;;
79670;SDS011;69137;50.878;8.050;2023-05-10T06:56:45;5.65;;;4.28;;
79670;SDS011;69137;50.878;8.050;2023-05-10T06:59:10;9.85;;;4.50;;
79670;SDS011;69137;50.878;8.050;2023-05-10T07:01:37;10.23;;;4.45;;
79670;SDS011;69137;50.878;8.050;2023-05-10T07:04:03;7.25;;;4.15;;
79670;SDS011;69137;50.878;8.050;2023-05-10T07:06:28;6.53;;;4.18;;
79670;SDS011;69137;50.878;8.050;2023-05-10T07:08:53;7.78;;;4.10;;
79670;SDS011;69137;50.878;8.050;2023-05-10T07:11:19;6.32;;;4.43;;
79670;SDS011;69137;50.878;8.050;2023-05-10T07:13:44;7.43;;;3.92;;
79670;SDS011;69137;50.878;8.050;2023-05-10T07:16:11;7.93;;;4.03;;
79670;SDS011;69137;50.878;8.050;2023-05-10T07:18:37;5.25;;;3.65;;
79670;SDS011;69137;50.878;8.050;2023-05-10T07:21:02;7.75;;;4.75;;
79670;SDS011;69137;50.878;8.050;2023-05-10T07:23:28;8.05;;;4.95;;
79670;SDS011;69137;50.878;8.050;2023-05-10T07:25:53;5.70;;;4.07;;
79670;SDS011;69137;50.878;8.050;2023-05-10T07:28:19;6.72;;;4.45;;
79670;SDS011;69137;50.878;8.050;2023-05-10T07:30:44;8.27;;;4.43;;
79670;SDS011;69137;50.878;8.050;2023-05-10T07:33:12;7.35;;;5.50;;
79670;SDS011;69137;50.878;8.050;2023-05-10T07:35:38;8.88;;;4.90;;
79670;SDS011;69137;50.878;8.050;2023-05-10T07:38:04;9.60;;;5.75;;
79670;SDS011;69137;50.878;8.050;2023-05-10T07:40:29;9.52;;;4.88;;
79670;SDS011;69137;50.878;8.050;2023-05-10T07:42:55;6.75;;;4.20;;
79670;SDS011;69137;50.878;8.050;2023-05-10T07:45:21;7.63;;;5.15;;
79670;SDS011;69137;50.878;8.050;2023-05-10T07:47:47;9.23;;;5.13;;
79670;SDS011;69137;50.878;8.050;2023-05-10T07:50:12;7.70;;;4.32;;
79670;SDS011;69137;50.878;8.050;2023-05-10T07:52:37;6.45;;;3.95;;
79670;SDS011;69137;50.878;8.050;2023-05-10T07:55:03;7.13;;;4.72;;
79670;SDS011;69137;50.878;8.050;2023-05-10T07:57:29;6.53;;;4.65;;
79670;SDS011;69137;50.878;8.050;2023-05-10T07:59:55;7.32;;;4.97;;
79670;SDS011;69137;50.878;8.050;2023-05-10T08:02:21;10.40;;;5.72;;
79670;SDS011;69137;50.878;8.050;2023-05-10T08:04:46;10.40;;;6.32;;
79670;SDS011;69137;50.878;8.050;2023-05-10T08:07:11;14.63;;;7.28;;
79670;SDS011;69137;50.878;8.050;2023-05-10T08:09:37;12.10;;;7.15;;
79670;SDS011;69137;50.878;8.050;2023-05-10T08:12:02;15.93;;;8.13;;
79670;SDS011;69137;50.878;8.050;2023-05-10T08:14:28;14.20;;;7.97;;
79670;SDS011;69137;50.878;8.050;2023-05-10T08:16:54;14.05;;;9.02;;
79670;SDS011;69137;50.878;8.050;2023-05-10T08:19:20;19.17;;;10.88;;
79670;SDS011;69137;50.878;8.050;2023-05-10T08:21:46;19.15;;;11.70;;
79670;SDS011;69137;50.878;8.050;2023-05-10T08:24:12;19.02;;;11.27;;
79670;SDS011;69137;50.878;8.050;2023-05-10T08:26:37;22.95;;;11.88;;
79670;SDS011;69137;50.878;8.050;2023-05-10T08:29:03;19.65;;;12.13;;
79670;SDS011;69137;50.878;8.050;2023-05-10T08:31:28;27.20;;;15.07;;
79670;SDS011;69137;50.878;8.050;2023-05-10T08:33:54;22.65;;;13.35;;
79670;SDS011;69137;50.878;8.050;2023-05-10T08:36:19;26.67;;;14.40;;
79670;SDS011;69137;50.878;8.050;2023-05-10T08:38:50;24.33;;;13.57;;
79670;SDS011;69137;50.878;8.050;2023-05-10T08:41:17;28.75;;;15.52;;
79670;SDS011;69137;50.878;8.050;2023-05-10T08:43:46;27.77;;;15.13;;
79670;SDS011;69137;50.878;8.050;2023-05-10T08:46:14;29.55;;;14.05;;
79670;SDS011;69137;50.878;8.050;2023-05-10T08:48:42;28.92;;;15.45;;
79670;SDS011;69137;50.878;8.050;2023-05-10T08:51:09;25.38;;;14.45;;
79670;SDS011;69137;50.878;8.050;2023-05-10T08:53:39;22.00;;;12.38;;
79670;SDS011;69137;50.878;8.050;2023-05-10T08:56:05;20.58;;;12.80;;
79670;SDS011;69137;50.878;8.050;2023-05-10T08:58:31;23.48;;;13.73;;
79670;SDS011;69137;50.878;8.050;2023-05-10T09:00:57;21.00;;;11.88;;
79670;SDS011;69137;50.878;8.050;2023-05-10T09:03:23;24.55;;;14.00;;
79670;SDS011;69137;50.878;8.050;2023-05-10T09:05:48;21.17;;;12.25;;
79670;SDS011;69137;50.878;8.050;2023-05-10T09:08:14;22.30;;;13.38;;
79670;SDS011;69137;50.878;8.050;2023-05-10T09:10:41;25.25;;;12.90;;
79670;SDS011;69137;50.878;8.050;2023-05-10T09:13:09;21.52;;;12.32;;
79670;SDS011;69137;50.878;8.050;2023-05-10T09:15:35;22.23;;;12.43;;
79670;SDS011;69137;50.878;8.050;2023-05-10T09:18:01;20.35;;;10.82;;
79670;SDS011;69137;50.878;8.050;2023-05-10T09:20:27;21.88;;;11.07;;
79670;SDS011;69137;50.878;8.050;2023-05-10T09:22:52;22.02;;;12.07;;
79670;SDS011;69137;50.878;8.050;2023-05-10T09:25:18;17.67;;;11.15;;
79670;SDS011;69137;50.878;8.050;2023-05-10T09:27:45;25.00;;;11.98;;
79670;SDS011;69137;50.878;8.050;2023-05-10T09:30:15;19.58;;;12.05;;
79670;SDS011;69137;50.878;8.050;2023-05-10T09:32:51;18.40;;;11.95;;
79670;SDS011;69137;50.878;8.050;2023-05-10T09:35:19;21.45;;;11.10;;
79670;SDS011;69137;50.878;8.050;2023-05-10T09:37:49;17.05;;;9.85;;
79670;SDS011;69137;50.878;8.050;2023-05-10T09:40:20;17.00;;;10.50;;
79670;SDS011;69137;50.878;8.050;2023-05-10T09:42:56;16.05;;;9.93;;
79670;SDS011;69137;50.878;8.050;2023-05-10T09:45:26;22.38;;;10.68;;
79670;SDS011;69137;50.878;8.050;2023-05-10T09:47:54;21.30;;;10.63;;
79670;SDS011;69137;50.878;8.050;2023-05-10T09:50:20;20.00;;;10.80;;
79670;SDS011;69137;50.878;8.050;2023-05-10T09:52:50;15.63;;;9.77;;
79670;SDS011;69137;50.878;8.050;2023-05-10T09:55:19;15.32;;;9.73;;
79670;SDS011;69137;50.878;8.050;2023-05-10T09:57:47;13.82;;;9.40;;
79670;SDS011;69137;50.878;8.050;2023-05-10T10:00:20;16.10;;;10.52;;
79670;SDS011;69137;50.878;8.050;2023-05-10T10:02:46;18.42;;;10.50;;
79670;SDS011;69137;50.878;8.050;2023-05-10T10:05:13;23.35;;;11.25;;
79670;SDS011;69137;50.878;8.050;2023-05-10T10:07:39;15.77;;;9.60;;
79670;SDS011;69137;50.878;8.050;2023-05-10T10:10:05;15.02;;;9.25;;
79670;SDS011;69137;50.878;8.050;2023-05-10T10:12:36;14.55;;;8.85;;
79670;SDS011;69137;50.878;8.050;2023-05-10T10:15:02;13.88;;;8.60;;
79670;SDS011;69137;50.878;8.050;2023-05-10T10:17:29;13.00;;;9.32;;
79670;SDS011;69137;50.878;8.050;2023-05-10T10:19:55;15.60;;;9.60;;
79670;SDS011;69137;50.878;8.050;2023-05-10T10:22:22;13.98;;;8.90;;
79670;SDS011;69137;50.878;8.050;2023-05-10T10:24:47;11.23;;;7.68;;
79670;SDS011;69137;50.878;8.050;2023-05-10T10:27:21;11.73;;;8.27;;
79670;SDS011;69137;50.878;8.050;2023-05-10T10:30:06;10.60;;;8.57;;
79670;SDS011;69137;50.878;8.050;2023-05-10T10:35:33;10.07;;;5.82;;
79670;SDS011;69137;50.878;8.050;2023-05-10T10:37:59;13.52;;;6.85;;
79670;SDS011;69137;50.878;8.050;2023-05-10T10:40:29;11.80;;;7.13;;
79670;SDS011;69137;50.878;8.050;2023-05-10T10:42:58;9.77;;;6.15;;
79670;SDS011;69137;50.878;8.050;2023-05-10T10:48:49;9.77;;;5.50;;
79670;SDS011;69137;50.878;8.050;2023-05-10T10:51:16;9.52;;;4.90;;
79670;SDS011;69137;50.878;8.050;2023-05-10T10:53:42;6.35;;;4.35;;
79670;SDS011;69137;50.878;8.050;2023-05-10T10:56:09;8.05;;;4.88;;
79670;SDS011;69137;50.878;8.050;2023-05-10T10:58:38;8.70;;;5.85;;
79670;SDS011;69137;50.878;8.050;2023-05-10T11:03:39;9.00;;;4.00;;
79670;SDS011;69137;50.878;8.050;2023-05-10T11:06:04;6.05;;;4.18;;
79670;SDS011;69137;50.878;8.050;2023-05-10T11:08:30;5.90;;;4.30;;
79670;SDS011;69137;50.878;8.050;2023-05-10T11:21:33;6.18;;;4.10;;
79670;SDS011;69137;50.878;8.050;2023-05-10T11:24:12;6.82;;;4.05;;
79670;SDS011;69137;50.878;8.050;2023-05-10T11:26:39;6.65;;;3.85;;
79670;SDS011;69137;50.878;8.050;2023-05-10T11:29:05;6.28;;;3.42;;
79670;SDS011;69137;50.878;8.050;2023-05-10T11:31:30;4.60;;;3.00;;
79670;SDS011;69137;50.878;8.050;2023-05-10T11:33:56;5.10;;;2.63;;
79670;SDS011;69137;50.878;8.050;2023-05-10T11:36:24;4.80;;;2.42;;
79670;SDS011;69137;50.878;8.050;2023-05-10T11:38:51;3.85;;;2.38;;
79670;SDS011;69137;50.878;8.050;2023-05-10T11:41:17;6.05;;;2.92;;
79670;SDS011;69137;50.878;8.050;2023-05-10T11:43:45;6.88;;;3.38;;
79670;SDS011;69137;50.878;8.050;2023-05-10T11:46:12;5.15;;;2.65;;
79670;SDS011;69137;50.878;8.050;2023-05-10T11:48:38;12.48;;;7.95;;
79670;SDS011;69137;50.878;8.050;2023-05-10T11:51:06;4.68;;;2.67;;
79670;SDS011;69137;50.878;8.050;2023-05-10T11:53:35;4.35;;;2.60;;
79670;SDS011;69137;50.878;8.050;2023-05-10T11:56:08;8.18;;;3.03;;
79670;SDS011;69137;50.878;8.050;2023-05-10T11:58:35;6.47;;;2.70;;
79670;SDS011;69137;50.878;8.050;2023-05-10T12:01:02;5.43;;;3.05;;
79670;SDS011;69137;50.878;8.050;2023-05-10T12:03:28;5.57;;;3.00;;
79670;SDS011;69137;50.878;8.050;2023-05-10T12:05:57;3.22;;;2.15;;
79670;SDS011;69137;50.878;8.050;2023-05-10T12:08:24;5.90;;;2.42;;
79670;SDS011;69137;50.878;8.050;2023-05-10T12:10:51;3.28;;;2.03;;
79670;SDS011;69137;50.878;8.050;2023-05-10T12:13:17;4.20;;;2.42;;
79670;SDS011;69137;50.878;8.050;2023-05-10T12:15:45;3.90;;;2.80;;
79670;SDS011;69137;50.878;8.050;2023-05-10T12:18:14;5.50;;;2.70;;
79670;SDS011;69137;50.878;8.050;2023-05-10T12:20:39;4.85;;;2.55;;
79670;SDS011;69137;50.878;8.050;2023-05-10T12:23:07;4.22;;;2.70;;
79670;SDS011;69137;50.878;8.050;2023-05-10T12:25:35;5.72;;;3.35;;
79670;SDS011;69137;50.878;8.050;2023-05-10T12:28:05;5.35;;;3.25;;
79670;SDS011;69137;50.878;8.050;2023-05-10T12:30:33;4.57;;;2.95;;
79670;SDS011;69137;50.878;8.050;2023-05-10T12:33:01;5.13;;;2.88;;
79670;SDS011;69137;50.878;8.050;2023-05-10T12:35:31;4.32;;;3.25;;
79670;SDS011;69137;50.878;8.050;2023-05-10T12:37:57;4.32;;;2.85;;
79670;SDS011;69137;50.878;8.050;2023-05-10T12:40:23;4.57;;;3.05;;
79670;SDS011;69137;50.878;8.050;2023-05-10T12:42:48;5.95;;;3.50;;
79670;SDS011;69137;50.878;8.050;2023-05-10T12:45:14;4.60;;;2.97;;
79670;SDS011;69137;50.878;8.050;2023-05-10T12:47:39;5.13;;;3.10;;
79670;SDS011;69137;50.878;8.050;2023-05-10T12:50:05;5.35;;;3.05;;
79670;SDS011;69137;50.878;8.050;2023-05-10T12:52:31;5.45;;;2.88;;
79670;SDS011;69137;50.878;8.050;2023-05-10T12:54:59;5.25;;;2.85;;
79670;SDS011;69137;50.878;8.050;2023-05-10T12:57:25;4.47;;;2.97;;
79670;SDS011;69137;50.878;8.050;2023-05-10T12:59:51;4.40;;;3.10;;
79670;SDS011;69137;50.878;8.050;2023-05-10T13:02:16;4.90;;;3.35;;
79670;SDS011;69137;50.878;8.050;2023-05-10T13:04:46;4.32;;;3.25;;
79670;SDS011;69137;50.878;8.050;2023-05-10T13:07:12;5.00;;;3.10;;
79670;SDS011;69137;50.878;8.050;2023-05-10T13:09:37;4.75;;;3.17;;
79670;SDS011;69137;50.878;8.050;2023-05-10T13:12:03;3.85;;;2.92;;
79670;SDS011;69137;50.878;8.050;2023-05-10T13:14:29;6.53;;;3.53;;
79670;SDS011;69137;50.878;8.050;2023-05-10T13:16:55;7.55;;;4.25;;
79670;SDS011;69137;50.878;8.050;2023-05-10T13:19:20;7.90;;;3.25;;
79670;SDS011;69137;50.878;8.050;2023-05-10T13:21:46;5.78;;;3.50;;
79670;SDS011;69137;50.878;8.050;2023-05-10T13:24:11;5.60;;;3.55;;
79670;SDS011;69137;50.878;8.050;2023-05-10T13:26:38;3.58;;;2.67;;
79670;SDS011;69137;50.878;8.050;2023-05-10T13:29:05;7.22;;;3.97;;
79670;SDS011;69137;50.878;8.050;2023-05-10T13:31:30;5.88;;;3.67;;
79670;SDS011;69137;50.878;8.050;2023-05-10T13:33:56;5.10;;;3.22;;
79670;SDS011;69137;50.878;8.050;2023-05-10T13:36:21;7.63;;;3.85;;
79670;SDS011;69137;50.878;8.050;2023-05-10T13:38:47;5.55;;;3.45;;
79670;SDS011;69137;50.878;8.050;2023-05-10T13:41:13;4.90;;;3.80;;
79670;SDS011;69137;50.878;8.050;2023-05-10T13:43:39;5.88;;;4.10;;
79670;SDS011;69137;50.878;8.050;2023-05-10T13:46:04;5.85;;;3.65;;
79670;SDS011;69137;50.878;8.050;2023-05-10T13:48:29;6.55;;;3.25;;
79670;SDS011;69137;50.878;8.050;2023-05-10T13:50:55;10.48;;;4.10;;
79670;SDS011;69137;50.878;8.050;2023-05-10T13:53:21;6.15;;;4.18;;
79670;SDS011;69137;50.878;8.050;2023-05-10T13:55:46;6.85;;;3.78;;
79670;SDS011;69137;50.878;8.050;2023-05-10T13:58:12;4.53;;;3.35;;
79670;SDS011;69137;50.878;8.050;2023-05-10T14:00:37;4.95;;;3.75;;
79670;SDS011;69137;50.878;8.050;2023-05-10T14:03:03;6.07;;;3.60;;
79670;SDS011;69137;50.878;8.050;2023-05-10T14:05:29;6.15;;;4.28;;
79670;SDS011;69137;50.878;8.050;2023-05-10T14:07:55;7.68;;;3.97;;
79670;SDS011;69137;50.878;8.050;2023-05-10T14:10:21;4.93;;;3.38;;
79670;SDS011;69137;50.878;8.050;2023-05-10T14:12:46;5.85;;;4.28;;
79670;SDS011;69137;50.878;8.050;2023-05-10T14:15:12;6.30;;;4.30;;
79670;SDS011;69137;50.878;8.050;2023-05-10T14:17:37;9.52;;;5.07;;
79670;SDS011;69137;50.878;8.050;2023-05-10T14:20:02;7.88;;;5.05;;
79670;SDS011;69137;50.878;8.050;2023-05-10T14:22:28;7.55;;;5.10;;
79670;SDS011;69137;50.878;8.050;2023-05-10T14:24:54;7.07;;;4.60;;
79670;SDS011;69137;50.878;8.050;2023-05-10T14:27:20;8.45;;;4.75;;
79670;SDS011;69137;50.878;8.050;2023-05-10T14:29:46;8.05;;;5.50;;
79670;SDS011;69137;50.878;8.050;2023-05-10T14:32:12;10.60;;;5.60;;
79670;SDS011;69137;50.878;8.050;2023-05-10T14:34:37;7.80;;;5.10;;
79670;SDS011;69137;50.878;8.050;2023-05-10T14:37:03;10.27;;;5.57;;
79670;SDS011;69137;50.878;8.050;2023-05-10T14:39:29;11.02;;;6.13;;
79670;SDS011;69137;50.878;8.050;2023-05-10T14:41:55;11.25;;;6.00;;
79670;SDS011;69137;50.878;8.050;2023-05-10T14:44:20;8.05;;;5.88;;
79670;SDS011;69137;50.878;8.050;2023-05-10T14:46:46;12.73;;;9.48;;
79670;SDS011;69137;50.878;8.050;2023-05-10T14:49:12;15.02;;;10.32;;
79670;SDS011;69137;50.878;8.050;2023-05-10T14:51:38;16.23;;;12.23;;
79670;SDS011;69137;50.878;8.050;2023-05-10T14:54:03;18.95;;;12.95;;
79670;SDS011;69137;50.878;8.050;2023-05-10T14:56:29;9.57;;;6.18;;
79670;SDS011;69137;50.878;8.050;2023-05-10T14:58:54;16.50;;;6.47;;
79670;SDS011;69137;50.878;8.050;2023-05-10T15:01:20;12.05;;;6.18;;
79670;SDS011;69137;50.878;8.050;2023-05-10T15:03:46;12.88;;;8.57;;
79670;SDS011;69137;50.878;8.050;2023-05-10T15:06:13;9.48;;;6.00;;
79670;SDS011;69137;50.878;8.050;2023-05-10T15:08:39;8.90;;;5.68;;
79670;SDS011;69137;50.878;8.050;2023-05-10T15:11:04;8.65;;;5.13;;
79670;SDS011;69137;50.878;8.050;2023-05-10T15:13:29;10.40;;;5.72;;
79670;SDS011;69137;50.878;8.050;2023-05-10T15:15:55;8.10;;;4.75;;
79670;SDS011;69137;50.878;8.050;2023-05-10T15:18:20;6.88;;;4.65;;
79670;SDS011;69137;50.878;8.050;2023-05-10T15:20:46;10.77;;;5.82;;
79670;SDS011;69137;50.878;8.050;2023-05-10T15:23:11;9.38;;;5.28;;
79670;SDS011;69137;50.878;8.050;2023-05-10T15:25:37;8.57;;;5.57;;
79670;SDS011;69137;50.878;8.050;2023-05-10T15:28:03;9.38;;;5.63;;
79670;SDS011;69137;50.878;8.050;2023-05-10T15:30:29;8.95;;;5.55;;
79670;SDS011;69137;50.878;8.050;2023-05-10T15:32:55;7.82;;;5.00;;
79670;SDS011;69137;50.878;8.050;2023-05-10T15:35:20;12.27;;;6.90;;